createdAt,value
2018-06-05T00:02:23.769Z,73.73
2018-06-05T00:04:53.471Z,74.19
2018-06-05T00:07:23.217Z,74.02
2018-06-05T00:09:52.907Z,73.69
2018-06-05T00:12:22.576Z,74.28
2018-06-05T00:14:52.277Z,74.67
2018-06-05T00:17:22.080Z,75.18
2018-06-05T00:19:51.783Z,74.13
2018-06-05T00:22:21.507Z,74.76
2018-06-05T00:24:51.180Z,74.63
2018-06-05T00:27:20.830Z,74.00
2018-06-05T00:29:50.549Z,72.86
2018-06-05T00:32:20.219Z,73.81
2018-06-05T00:34:49.890Z,73.61
2018-06-05T00:37:19.615Z,73.37
2018-06-05T00:39:49.268Z,72.99
2018-06-05T00:42:18.952Z,73.89
2018-06-05T00:44:48.656Z,73.27
2018-06-05T00:47:18.322Z,73.55
2018-06-05T00:49:48.003Z,74.28
2018-06-05T00:52:17.702Z,74.59
2018-06-05T00:54:47.351Z,73.96
2018-06-05T00:57:17.017Z,73.68
2018-06-05T00:59:46.691Z,74.02
2018-06-05T01:02:16.632Z,74.72
2018-06-05T01:04:46.359Z,74.81
2018-06-05T01:07:16.101Z,74.31
2018-06-05T01:09:45.771Z,74.04
2018-06-05T01:12:15.488Z,73.66
2018-06-05T01:14:45.142Z,74.50
2018-06-05T01:17:14.811Z,73.95
2018-06-05T01:19:44.516Z,73.36
2018-06-05T01:22:14.233Z,73.39
2018-06-05T01:24:43.892Z,73.27
2018-06-05T01:27:13.871Z,73.82
2018-06-05T01:29:43.520Z,72.95
2018-06-05T01:32:13.224Z,73.27
2018-06-05T01:34:42.884Z,73.69
2018-06-05T01:37:12.543Z,73.26
2018-06-05T01:39:42.243Z,73.07
2018-06-05T01:42:11.900Z,73.12
2018-06-05T01:44:41.546Z,73.60
2018-06-05T01:47:11.235Z,73.64
2018-06-05T01:49:40.873Z,73.87
2018-06-05T01:52:10.732Z,73.78
2018-06-05T01:54:40.453Z,73.84
2018-06-05T01:57:10.104Z,73.81
2018-06-05T01:59:39.752Z,74.34
2018-06-05T02:02:09.447Z,73.96
2018-06-05T02:04:39.107Z,74.40
2018-06-05T02:07:08.883Z,74.14
2018-06-05T02:09:38.592Z,74.16
2018-06-05T02:12:08.206Z,74.41
2018-06-05T02:14:37.854Z,74.52
2018-06-05T02:17:07.591Z,74.13
2018-06-05T02:19:37.235Z,74.47
2018-06-05T02:22:07.523Z,75.31
2018-06-05T02:24:37.178Z,74.34
2018-06-05T02:27:06.951Z,74.35
2018-06-05T02:29:36.595Z,74.25
2018-06-05T02:32:06.320Z,74.34
2018-06-05T02:34:35.992Z,74.57
2018-06-05T02:37:05.680Z,75.84
2018-06-05T02:39:35.393Z,75.32
2018-06-05T02:42:05.080Z,74.92
2018-06-05T02:44:34.731Z,74.73
2018-06-05T02:47:04.457Z,74.97
2018-06-05T02:49:34.104Z,74.74
2018-06-05T02:52:03.791Z,75.87
2018-06-05T02:54:33.476Z,75.18
2018-06-05T02:57:03.140Z,75.76
2018-06-05T02:59:32.821Z,75.52
2018-06-05T03:02:02.535Z,75.54
2018-06-05T03:04:32.197Z,75.44
2018-06-05T03:07:01.908Z,75.42
2018-06-05T03:09:31.576Z,75.48
2018-06-05T03:12:01.311Z,75.25
2018-06-05T03:14:30.968Z,75.31
2018-06-05T03:17:00.633Z,75.74
2018-06-05T03:19:30.371Z,75.34
2018-06-05T03:21:59.984Z,74.54
2018-06-05T03:24:29.647Z,75.67
2018-06-05T03:26:59.320Z,75.01
2018-06-05T03:29:28.992Z,75.35
2018-06-05T03:31:58.685Z,75.47
2018-06-05T03:34:28.387Z,75.14
2018-06-05T03:36:58.069Z,74.71
2018-06-05T03:39:27.741Z,75.03
2018-06-05T03:41:57.504Z,75.32
2018-06-05T03:44:27.196Z,75.48
2018-06-05T03:46:56.886Z,75.21
2018-06-05T03:49:26.587Z,74.95
2018-06-05T03:51:56.224Z,75.25
2018-06-05T03:54:25.912Z,75.77
2018-06-05T03:56:55.578Z,74.54
2018-06-05T03:59:25.301Z,75.07
2018-06-05T04:01:54.963Z,75.19
2018-06-05T04:04:24.746Z,75.85
2018-06-05T04:06:54.408Z,75.34
2018-06-05T04:09:24.109Z,75.27
2018-06-05T04:11:53.766Z,74.87
2018-06-05T04:14:23.428Z,74.64
2018-06-05T04:16:53.300Z,74.43
2018-06-05T04:19:22.965Z,74.21
2018-06-05T04:21:52.615Z,75.28
2018-06-05T04:24:22.343Z,74.48
2018-06-05T04:26:51.976Z,75.46
2018-06-05T04:29:21.631Z,75.47
2018-06-05T04:31:51.328Z,74.72
2018-06-05T04:34:20.974Z,75.37
2018-06-05T04:36:50.659Z,74.96
2018-06-05T04:39:20.375Z,74.86
2018-06-05T04:41:50.092Z,75.15
2018-06-05T04:44:19.763Z,74.08
2018-06-05T04:46:49.649Z,74.62
2018-06-05T04:49:19.316Z,74.81
2018-06-05T04:51:48.979Z,74.19
2018-06-05T04:54:18.690Z,74.14
2018-06-05T04:56:48.337Z,74.36
2018-06-05T04:59:18.004Z,74.07
2018-06-05T05:01:47.715Z,73.39
2018-06-05T05:04:17.433Z,73.56
2018-06-05T05:06:47.150Z,74.08
2018-06-05T05:09:17.957Z,74.32
2018-06-05T05:11:47.636Z,74.24
2018-06-05T05:14:17.324Z,74.37
2018-06-05T05:16:47.132Z,73.98
2018-06-05T05:19:16.811Z,74.64
2018-06-05T05:21:46.463Z,74.24
2018-06-05T05:24:16.153Z,74.34
2018-06-05T05:26:45.845Z,73.96
2018-06-05T05:29:15.511Z,73.30
2018-06-05T05:31:45.247Z,73.54
2018-06-05T05:34:14.971Z,74.02
2018-06-05T05:36:45.137Z,73.55
2018-06-05T05:39:14.920Z,72.95
2018-06-05T05:41:44.710Z,73.58
2018-06-05T05:44:14.506Z,72.83
2018-06-05T05:46:44.333Z,73.41
2018-06-05T05:49:14.074Z,72.95
2018-06-05T05:51:44.017Z,73.90
2018-06-05T05:54:14.521Z,73.13
2018-06-05T05:56:44.212Z,73.09
2018-06-05T05:59:13.876Z,73.13
2018-06-05T06:01:43.598Z,72.63
2018-06-05T06:04:13.270Z,72.40
2018-06-05T06:06:42.930Z,73.25
2018-06-05T06:09:12.659Z,73.58
2018-06-05T06:11:42.640Z,73.18
2018-06-05T06:14:12.363Z,72.83
2018-06-05T06:16:42.049Z,71.94
2018-06-05T06:19:11.718Z,72.66
2018-06-05T06:21:41.412Z,72.79
2018-06-05T06:24:11.152Z,72.50
2018-06-05T06:26:40.801Z,73.00
2018-06-05T06:29:10.504Z,72.79
2018-06-05T06:31:40.161Z,73.13
2018-06-05T06:34:09.825Z,72.10
2018-06-05T06:36:39.532Z,72.04
2018-06-05T06:39:10.444Z,73.22
2018-06-05T06:41:40.148Z,71.71
2018-06-05T06:44:09.799Z,72.33
2018-06-05T06:46:39.461Z,72.29
2018-06-05T06:49:09.185Z,72.40
2018-06-05T06:51:38.841Z,71.74
2018-06-05T06:54:08.545Z,71.40
2018-06-05T06:56:38.290Z,72.41
2018-06-05T06:59:07.947Z,71.56
2018-06-05T07:01:37.587Z,70.80
2018-06-05T07:04:07.305Z,70.91
2018-06-05T07:06:37.073Z,70.80
2018-06-05T07:09:08.703Z,71.82
2018-06-05T07:11:38.390Z,72.21
2018-06-05T07:14:08.136Z,71.51
2018-06-05T07:16:37.795Z,71.87
2018-06-05T07:19:07.449Z,71.87
2018-06-05T07:21:37.141Z,71.17
2018-06-05T07:24:06.822Z,71.40
2018-06-05T07:26:36.480Z,70.96
2018-06-05T07:29:06.188Z,70.55
2018-06-05T07:31:35.841Z,70.79
2018-06-05T07:34:05.531Z,70.10
2018-06-05T07:36:35.252Z,70.39
2018-06-05T07:39:07.239Z,70.63
2018-06-05T07:41:36.971Z,70.65
2018-06-05T07:44:06.647Z,70.64
2018-06-05T07:46:36.372Z,71.01
2018-06-05T07:49:06.020Z,70.36
2018-06-05T07:51:35.684Z,70.54
2018-06-05T07:54:05.388Z,71.11
2018-06-05T07:56:35.052Z,70.65
2018-06-05T07:59:04.736Z,71.03
2018-06-05T08:01:34.479Z,71.32
2018-06-05T08:04:04.579Z,70.75
2018-06-05T08:06:34.283Z,71.57
2018-06-05T08:09:04.187Z,71.51
2018-06-05T08:11:33.855Z,70.78
2018-06-05T08:14:03.589Z,70.30
2018-06-05T08:16:33.245Z,70.26
2018-06-05T08:19:02.935Z,70.47
2018-06-05T08:21:32.634Z,70.54
2018-06-05T08:24:02.329Z,71.19
2018-06-05T08:26:45.958Z,71.82
2018-06-05T08:29:15.620Z,70.51
2018-06-05T08:31:45.324Z,70.15
2018-06-05T08:34:15.081Z,70.45
2018-06-05T08:36:44.851Z,70.54
2018-06-05T08:39:14.594Z,69.72
2018-06-05T08:41:44.264Z,70.11
2018-06-05T08:44:14.019Z,68.51
2018-06-05T08:46:44.245Z,69.34
2018-06-05T08:49:13.931Z,69.79
2018-06-05T08:51:43.612Z,69.36
2018-06-05T08:54:13.378Z,70.31
2018-06-05T08:56:43.048Z,70.40
2018-06-05T08:59:12.707Z,70.57
2018-06-05T09:01:42.412Z,69.82
2018-06-05T09:04:12.116Z,70.92
2018-06-05T09:06:41.795Z,69.58
2018-06-05T09:09:11.553Z,69.94
2018-06-05T09:11:41.213Z,69.94
2018-06-05T09:14:10.888Z,69.60
2018-06-05T09:16:40.637Z,70.40
2018-06-05T09:19:10.283Z,70.54
2018-06-05T09:21:39.964Z,70.15
2018-06-05T09:24:09.674Z,69.86
2018-06-05T09:26:39.343Z,69.12
2018-06-05T09:29:09.059Z,69.58
2018-06-05T09:31:38.740Z,69.61
2018-06-05T09:34:08.448Z,68.92
2018-06-05T09:36:38.214Z,68.92
2018-06-05T09:39:09.287Z,69.92
2018-06-05T09:41:38.987Z,70.45
2018-06-05T09:44:08.691Z,70.24
2018-06-05T09:46:38.431Z,70.30
2018-06-05T09:49:08.116Z,70.15
2018-06-05T09:51:37.767Z,69.00
2018-06-05T09:54:07.933Z,68.21
2018-06-05T09:56:37.608Z,69.12
2018-06-05T09:59:07.385Z,68.85
2018-06-05T10:01:37.035Z,69.85
2018-06-05T10:04:06.727Z,69.26
2018-06-05T10:06:36.826Z,69.08
2018-06-05T10:09:07.689Z,68.95
2018-06-05T10:11:37.451Z,69.16
2018-06-05T10:14:07.122Z,69.01
2018-06-05T10:16:36.781Z,67.90
2018-06-05T10:19:06.544Z,68.39
2018-06-05T10:21:36.232Z,68.50
2018-06-05T10:24:06.008Z,68.14
2018-06-05T10:26:35.701Z,68.95
2018-06-05T10:29:05.443Z,67.51
2018-06-05T10:31:35.329Z,67.44
2018-06-05T10:34:04.995Z,66.84
2018-06-05T10:36:34.695Z,66.10
2018-06-05T10:39:06.081Z,66.48
2018-06-05T10:41:35.750Z,64.87
2018-06-05T10:44:05.464Z,65.16
2018-06-05T10:46:35.179Z,65.31
2018-06-05T10:49:04.852Z,66.54
2018-06-05T10:51:34.554Z,66.60
2018-06-05T10:54:04.260Z,66.23
2018-06-05T10:56:34.077Z,64.01
2018-06-05T10:59:03.749Z,64.10
2018-06-05T11:01:33.471Z,64.08
2018-06-05T11:04:03.194Z,63.49
2018-06-05T11:06:32.856Z,62.13
2018-06-05T11:09:02.591Z,62.47
2018-06-05T11:11:32.267Z,62.38
2018-06-05T11:14:01.997Z,63.77
2018-06-05T11:16:31.700Z,61.38
2018-06-05T11:19:01.344Z,63.42
2018-06-05T11:21:31.005Z,63.03
2018-06-05T11:24:00.722Z,62.30
2018-06-05T11:26:30.389Z,60.94
2018-06-05T11:29:00.304Z,58.73
2018-06-05T11:31:29.965Z,59.33
2018-06-05T11:33:59.622Z,59.49
2018-06-05T11:36:29.344Z,59.41
2018-06-05T11:38:59.004Z,56.61
2018-06-05T11:41:28.651Z,58.05
2018-06-05T11:43:58.343Z,57.06
2018-06-05T11:46:27.988Z,56.23
2018-06-05T11:48:57.647Z,55.14
2018-06-05T11:51:27.470Z,53.51
2018-06-05T11:53:57.176Z,53.61
2018-06-05T11:56:27.164Z,53.94
2018-06-05T11:58:56.811Z,53.52
2018-06-05T12:01:26.476Z,50.68
2018-06-05T12:03:56.188Z,51.63
2018-06-05T12:06:25.833Z,51.92
2018-06-05T12:08:55.580Z,53.51
2018-06-05T12:11:25.247Z,50.80
2018-06-05T12:13:54.867Z,51.98
2018-06-05T12:16:24.543Z,51.26
2018-06-05T12:18:54.199Z,51.08
2018-06-05T12:21:23.875Z,52.12
2018-06-05T12:23:53.562Z,49.42
2018-06-05T12:26:23.224Z,48.42
2018-06-05T12:28:52.891Z,47.84
2018-06-05T12:31:22.615Z,49.94
2018-06-05T12:33:52.281Z,50.98
2018-06-05T12:36:21.944Z,50.67
2018-06-05T12:38:51.636Z,48.07
2018-06-05T12:41:21.263Z,47.95
2018-06-05T12:43:50.959Z,48.73
2018-06-05T12:46:20.640Z,48.60
2018-06-05T12:48:50.312Z,48.81
2018-06-05T12:51:19.963Z,48.49
2018-06-05T12:53:49.671Z,47.84
2018-06-05T12:56:19.311Z,48.39
2018-06-05T12:58:48.968Z,49.92
2018-06-05T13:01:18.883Z,47.66
2018-06-05T13:03:48.533Z,47.82
2018-06-05T13:06:18.288Z,48.63
2018-06-05T13:08:47.936Z,46.17
2018-06-05T13:11:17.592Z,46.82
2018-06-05T13:13:47.268Z,48.48
2018-06-05T13:16:16.946Z,48.72
2018-06-05T13:18:46.591Z,48.42
2018-06-05T13:21:16.308Z,49.02
2018-06-05T13:23:45.996Z,46.90
2018-06-05T13:26:15.660Z,47.42
2018-06-05T13:28:45.351Z,47.90
2018-06-05T13:31:15.119Z,47.64
2018-06-05T13:33:44.785Z,47.00
2018-06-05T13:36:14.515Z,45.80
2018-06-05T13:38:44.160Z,44.91
2018-06-05T13:41:13.815Z,43.34
2018-06-05T13:43:43.561Z,45.18
2018-06-05T13:46:13.217Z,46.67
2018-06-05T13:48:42.861Z,45.74
2018-06-05T13:51:12.551Z,44.64
2018-06-05T13:53:42.390Z,48.03
2018-06-05T13:56:12.127Z,46.75
2018-06-05T13:58:41.765Z,45.74
2018-06-05T14:01:11.413Z,46.29
2018-06-05T14:03:41.245Z,45.73
2018-06-05T14:06:10.991Z,48.49
2018-06-05T14:08:40.656Z,46.13
2018-06-05T14:11:10.352Z,47.08
2018-06-05T14:13:40.050Z,45.42
2018-06-05T14:16:09.755Z,45.60
2018-06-05T14:18:39.431Z,45.94
2018-06-05T14:21:09.091Z,45.25
2018-06-05T14:23:38.747Z,44.88
2018-06-05T14:26:08.444Z,44.68
2018-06-05T14:28:38.101Z,49.24
2018-06-05T14:31:07.768Z,45.58
2018-06-05T14:33:37.479Z,48.79
2018-06-05T14:36:07.371Z,47.86
2018-06-05T14:38:37.060Z,47.59
2018-06-05T14:41:06.720Z,47.25
2018-06-05T14:43:36.373Z,47.49
2018-06-05T14:46:06.082Z,45.08
2018-06-05T14:48:35.744Z,49.60
2018-06-05T14:51:05.438Z,49.03
2018-06-05T14:53:35.153Z,47.53
2018-06-05T14:56:04.824Z,47.10
2018-06-05T14:58:35.424Z,48.57
2018-06-05T15:01:05.131Z,48.83
2018-06-05T15:03:34.828Z,48.90
2018-06-05T15:06:04.545Z,48.87
2018-06-05T15:08:34.209Z,50.54
2018-06-05T15:11:03.886Z,50.65
2018-06-05T15:13:33.535Z,50.83
2018-06-05T15:16:03.268Z,50.34
2018-06-05T15:18:32.935Z,50.19
2018-06-05T15:21:02.608Z,50.18
2018-06-05T15:23:32.319Z,51.22
2018-06-05T15:26:01.997Z,49.60
2018-06-05T15:28:31.654Z,50.17
2018-06-05T15:31:01.373Z,50.41
2018-06-05T15:33:31.055Z,50.92
2018-06-05T15:36:00.728Z,51.68
2018-06-05T15:38:30.907Z,51.22
2018-06-05T15:41:00.574Z,52.03
2018-06-05T15:43:30.275Z,50.93
2018-06-05T15:45:59.970Z,52.32
2018-06-05T15:48:29.923Z,52.07
2018-06-05T15:50:59.616Z,51.51
2018-06-05T15:53:29.296Z,52.07
2018-06-05T15:55:58.971Z,53.02
2018-06-05T15:58:28.664Z,50.29
2018-06-05T16:00:58.315Z,52.10
2018-06-05T16:03:27.988Z,51.91
2018-06-05T16:05:57.815Z,52.15
2018-06-05T16:08:27.471Z,52.85
2018-06-05T16:10:57.187Z,51.68
2018-06-05T16:13:26.855Z,53.21
2018-06-05T16:15:56.516Z,52.56
2018-06-05T16:18:26.211Z,52.83
2018-06-05T16:20:55.868Z,52.93
2018-06-05T16:23:25.512Z,52.09
2018-06-05T16:25:55.224Z,53.16
2018-06-05T16:28:24.883Z,52.44
2018-06-05T16:30:54.545Z,52.07
2018-06-05T16:33:24.289Z,52.82
2018-06-05T16:35:53.951Z,54.15
2018-06-05T16:38:23.631Z,53.00
2018-06-05T16:40:53.458Z,53.14
2018-06-05T16:43:23.121Z,51.95
2018-06-05T16:45:52.776Z,52.83
2018-06-05T16:48:22.487Z,52.44
2018-06-05T16:50:52.148Z,52.98
2018-06-05T16:53:21.807Z,53.35
2018-06-05T16:55:51.520Z,54.19
2018-06-05T16:58:21.186Z,51.87
2018-06-05T17:00:50.860Z,52.21
2018-06-05T17:03:20.926Z,52.85
2018-06-05T17:05:50.587Z,52.03
2018-06-05T17:08:20.272Z,53.25
2018-06-05T17:10:50.265Z,52.63
2018-06-05T17:13:19.927Z,53.40
2018-06-05T17:15:49.808Z,53.13
2018-06-05T17:18:19.478Z,54.37
2018-06-05T17:20:49.192Z,52.61
2018-06-05T17:23:18.860Z,53.86
2018-06-05T17:25:48.534Z,54.70
2018-06-05T17:28:18.246Z,54.89
2018-06-05T17:30:48.072Z,54.82
2018-06-05T17:33:17.728Z,55.63
2018-06-05T17:35:47.440Z,55.27
2018-06-05T17:38:17.104Z,55.07
2018-06-05T17:40:46.743Z,54.39
2018-06-05T17:43:16.414Z,54.67
2018-06-05T17:45:46.103Z,54.06
2018-06-05T17:48:15.764Z,54.55
2018-06-05T17:50:45.720Z,54.87
2018-06-05T17:53:15.397Z,55.82
2018-06-05T17:55:45.088Z,54.94
2018-06-05T17:58:15.026Z,55.09
2018-06-05T18:00:44.707Z,56.56
2018-06-05T18:03:14.465Z,55.91
2018-06-05T18:05:44.201Z,56.05
2018-06-05T18:08:13.949Z,56.53
2018-06-05T18:10:43.800Z,56.70
2018-06-05T18:13:13.576Z,58.00
2018-06-05T18:15:43.327Z,57.55
2018-06-05T18:18:12.982Z,56.34
2018-06-05T18:20:42.640Z,57.24
2018-06-05T18:23:18.945Z,57.30
2018-06-05T18:25:48.630Z,55.36
2018-06-05T18:28:18.304Z,57.03
2018-06-05T18:30:47.967Z,57.68
2018-06-05T18:33:17.636Z,57.37
2018-06-05T18:35:47.335Z,58.49
2018-06-05T18:38:17.007Z,59.05
2018-06-05T18:40:46.856Z,60.19
2018-06-05T18:43:16.538Z,59.96
2018-06-05T18:45:46.192Z,60.41
2018-06-05T18:48:15.852Z,60.92
2018-06-05T18:50:45.513Z,61.20
2018-06-05T18:53:15.128Z,61.36
2018-06-05T18:55:44.747Z,60.90
2018-06-05T18:58:14.429Z,60.75
2018-06-05T19:00:44.070Z,61.20
2018-06-05T19:03:13.769Z,61.68
2018-06-05T19:05:43.464Z,61.05
2018-06-05T19:08:13.135Z,62.03
2018-06-05T19:10:42.791Z,61.57
2018-06-05T19:13:12.509Z,61.83
2018-06-05T19:15:42.153Z,61.48
2018-06-05T19:18:11.803Z,61.32
2018-06-05T19:20:41.544Z,61.39
2018-06-05T19:23:11.259Z,61.31
2018-06-05T19:25:40.956Z,61.09
2018-06-05T19:28:10.710Z,61.67
2018-06-05T19:30:40.405Z,61.29
2018-06-05T19:33:10.111Z,62.11
2018-06-05T19:35:39.884Z,61.75
2018-06-05T19:38:09.551Z,62.91
2018-06-05T19:40:39.275Z,63.58
2018-06-05T19:43:08.937Z,64.50
2018-06-05T19:45:38.619Z,64.50
2018-06-05T19:48:08.311Z,64.38
2018-06-05T19:50:37.969Z,64.49
2018-06-05T19:53:07.632Z,64.75
2018-06-05T19:55:37.374Z,65.05
2018-06-05T19:58:07.053Z,64.97
2018-06-05T20:00:36.739Z,65.04
2018-06-05T20:03:06.463Z,65.52
2018-06-05T20:05:36.392Z,65.83
2018-06-05T20:08:06.067Z,66.93
2018-06-05T20:10:35.739Z,67.70
2018-06-05T20:13:05.519Z,69.50
2018-06-05T20:15:35.533Z,70.07
2018-06-05T20:18:05.358Z,70.13
2018-06-05T20:20:35.038Z,69.97
2018-06-05T20:23:04.708Z,69.48
2018-06-05T20:25:34.438Z,69.19
2018-06-05T20:28:04.107Z,68.81
2018-06-05T20:30:33.779Z,69.17
2018-06-05T20:33:03.585Z,69.96
2018-06-05T20:35:33.269Z,69.54
2018-06-05T20:38:02.993Z,69.38
2018-06-05T20:40:32.872Z,69.17
2018-06-05T20:43:02.560Z,70.05
2018-06-05T20:45:32.376Z,70.13
2018-06-05T20:48:02.083Z,70.64
2018-06-05T20:50:31.837Z,70.24
2018-06-05T20:53:01.586Z,70.68
2018-06-05T20:55:31.328Z,70.18
2018-06-05T20:58:01.820Z,70.33
2018-06-05T21:00:31.540Z,69.85
2018-06-05T21:03:01.224Z,70.80
2018-06-05T21:05:30.897Z,70.38
2018-06-05T21:08:00.643Z,70.71
2018-06-05T21:10:30.300Z,69.95
2018-06-05T21:13:00.010Z,71.00
2018-06-05T21:15:29.694Z,70.36
2018-06-05T21:17:59.361Z,70.89
2018-06-05T21:20:29.114Z,71.59
2018-06-05T21:22:58.757Z,71.22
2018-06-05T21:25:28.420Z,71.18
2018-06-05T21:27:58.130Z,71.42
2018-06-05T21:30:27.794Z,71.55
2018-06-05T21:32:57.470Z,72.21
2018-06-05T21:35:27.547Z,72.35
2018-06-05T21:37:57.198Z,72.99
2018-06-05T21:40:26.873Z,72.78
2018-06-05T21:42:56.591Z,72.46
2018-06-05T21:45:26.236Z,72.57
2018-06-05T21:47:55.962Z,73.55
2018-06-05T21:50:25.679Z,73.35
2018-06-05T21:52:55.361Z,72.65
2018-06-05T21:55:25.124Z,73.20
2018-06-05T21:57:54.780Z,73.71
2018-06-05T22:00:24.458Z,74.20
2018-06-05T22:02:54.167Z,74.15
2018-06-05T22:05:23.853Z,73.85
2018-06-05T22:07:53.510Z,73.40
2018-06-05T22:10:23.206Z,73.89
2018-06-05T22:12:52.877Z,73.85
2018-06-05T22:15:22.544Z,73.69
2018-06-05T22:17:52.248Z,73.76
2018-06-05T22:20:21.918Z,73.67
2018-06-05T22:22:51.605Z,74.01
2018-06-05T22:25:21.287Z,74.15
2018-06-05T22:27:50.957Z,74.08
2018-06-05T22:30:20.617Z,75.06
2018-06-05T22:32:50.585Z,75.13
2018-06-05T22:35:20.279Z,75.69
2018-06-05T22:37:49.931Z,75.14
2018-06-05T22:40:19.661Z,75.57
2018-06-05T22:42:49.735Z,75.63
2018-06-05T22:45:19.436Z,75.79
2018-06-05T22:47:49.134Z,75.42
2018-06-05T22:50:18.815Z,75.89
2018-06-05T22:52:48.532Z,76.42
2018-06-05T22:55:18.223Z,75.58
2018-06-05T22:57:47.881Z,76.23
2018-06-05T23:00:23.891Z,75.81
2018-06-05T23:02:53.548Z,77.30
2018-06-05T23:05:23.252Z,76.89
2018-06-05T23:07:52.926Z,76.14
2018-06-05T23:10:22.594Z,77.51
2018-06-05T23:12:52.293Z,77.53
2018-06-05T23:15:21.960Z,77.26
2018-06-05T23:17:51.600Z,76.82
2018-06-05T23:20:21.353Z,77.05
2018-06-05T23:22:51.010Z,76.29
2018-06-05T23:25:20.685Z,77.08
2018-06-05T23:27:50.392Z,76.54
2018-06-05T23:30:20.115Z,76.94
2018-06-05T23:32:49.819Z,77.01
2018-06-05T23:35:19.772Z,76.92
2018-06-05T23:37:49.436Z,76.77
2018-06-05T23:40:19.144Z,75.87
2018-06-05T23:42:48.837Z,76.60
2018-06-05T23:45:18.488Z,76.13
2018-06-05T23:47:48.172Z,76.56
2018-06-05T23:50:17.841Z,76.10
2018-06-05T23:52:47.492Z,75.65
2018-06-05T23:55:23.676Z,75.99
2018-06-05T23:57:53.327Z,75.71
